sensor_id;sensor_type;location;lat;lon;timestamp;P1;durP1;ratioP1;P2;durP2;ratioP2
75914;SDS011;64593;51.050;13.780;2024-02-16T07:02:23;25.40;;;12.93;;
75914;SDS011;64593;51.050;13.780;2024-02-16T07:07:26;27.17;;;19.27;;
75914;SDS011;64593;51.050;13.780;2024-02-16T07:12:28;17.30;;;9.93;;
75914;SDS011;64593;51.050;13.780;2024-02-16T07:17:30;24.00;;;14.20;;
75914;SDS011;64593;51.050;13.780;2024-02-16T07:22:33;24.23;;;15.80;;
75914;SDS011;64593;51.050;13.780;2024-02-16T07:27:54;24.73;;;15.55;;
75914;SDS011;64593;51.050;13.780;2024-02-16T07:32:55;23.73;;;15.35;;
75914;SDS011;64593;51.050;13.780;2024-02-16T07:37:57;24.90;;;15.70;;
75914;SDS011;64593;51.050;13.780;2024-02-16T07:42:59;21.77;;;15.35;;
75914;SDS011;64593;51.050;13.780;2024-02-16T07:48:02;24.35;;;15.43;;
75914;SDS011;64593;51.050;13.780;2024-02-16T07:53:07;23.48;;;16.13;;
75914;SDS011;64593;51.050;13.780;2024-02-16T07:58:11;25.92;;;14.07;;
75914;SDS011;64593;51.050;13.780;2024-02-16T08:03:32;21.42;;;14.18;;
75914;SDS011;64593;51.050;13.780;2024-02-16T08:08:35;19.92;;;14.73;;
75914;SDS011;64593;51.050;13.780;2024-02-16T08:13:37;21.75;;;15.77;;
75914;SDS011;64593;51.050;13.780;2024-02-16T08:18:39;22.10;;;16.13;;
75914;SDS011;64593;51.050;13.780;2024-02-16T08:23:41;20.60;;;13.52;;
75914;SDS011;64593;51.050;13.780;2024-02-16T08:28:43;23.65;;;15.90;;
75914;SDS011;64593;51.050;13.780;2024-02-16T08:33:46;24.23;;;16.80;;
75914;SDS011;64593;51.050;13.780;2024-02-16T08:38:49;22.02;;;15.02;;
75914;SDS011;64593;51.050;13.780;2024-02-16T08:43:51;24.10;;;14.27;;
75914;SDS011;64593;51.050;13.780;2024-02-16T08:48:53;24.05;;;15.68;;
75914;SDS011;64593;51.050;13.780;2024-02-16T08:53:55;24.38;;;16.95;;
75914;SDS011;64593;51.050;13.780;2024-02-16T08:58:57;24.13;;;14.18;;
75914;SDS011;64593;51.050;13.780;2024-02-16T09:03:59;22.65;;;12.30;;
75914;SDS011;64593;51.050;13.780;2024-02-16T09:09:03;23.65;;;14.75;;
75914;SDS011;64593;51.050;13.780;2024-02-16T09:14:05;22.70;;;16.55;;
75914;SDS011;64593;51.050;13.780;2024-02-16T09:19:07;22.17;;;14.35;;
75914;SDS011;64593;51.050;13.780;2024-02-16T09:24:09;23.70;;;17.15;;
75914;SDS011;64593;51.050;13.780;2024-02-16T09:29:15;20.63;;;13.75;;
75914;SDS011;64593;51.050;13.780;2024-02-16T09:34:19;20.42;;;13.70;;
75914;SDS011;64593;51.050;13.780;2024-02-16T09:39:21;22.10;;;14.90;;
75914;SDS011;64593;51.050;13.780;2024-02-16T09:44:23;23.02;;;15.25;;
75914;SDS011;64593;51.050;13.780;2024-02-16T09:49:25;21.08;;;13.25;;
75914;SDS011;64593;51.050;13.780;2024-02-16T09:54:50;20.38;;;13.23;;
75914;SDS011;64593;51.050;13.780;2024-02-16T09:59:52;23.48;;;13.88;;
75914;SDS011;64593;51.050;13.780;2024-02-16T10:04:54;18.33;;;11.70;;
75914;SDS011;64593;51.050;13.780;2024-02-16T10:09:56;15.65;;;10.57;;
75914;SDS011;64593;51.050;13.780;2024-02-16T10:14:58;16.75;;;10.88;;
75914;SDS011;64593;51.050;13.780;2024-02-16T10:20:20;22.05;;;15.60;;
75914;SDS011;64593;51.050;13.780;2024-02-16T10:25:22;18.75;;;14.02;;
75914;SDS011;64593;51.050;13.780;2024-02-16T10:30:30;19.90;;;15.73;;
75914;SDS011;64593;51.050;13.780;2024-02-16T10:35:36;19.33;;;10.98;;
75914;SDS011;64593;51.050;13.780;2024-02-16T10:40:41;23.17;;;12.35;;
75914;SDS011;64593;51.050;13.780;2024-02-16T10:45:44;19.83;;;14.73;;
75914;SDS011;64593;51.050;13.780;2024-02-16T10:50:48;19.70;;;13.00;;
75914;SDS011;64593;51.050;13.780;2024-02-16T10:56:11;19.38;;;17.00;;
75914;SDS011;64593;51.050;13.780;2024-02-16T11:01:40;20.73;;;16.98;;
75914;SDS011;64593;51.050;13.780;2024-02-16T11:07:01;20.42;;;13.65;;
75914;SDS011;64593;51.050;13.780;2024-02-16T11:12:06;20.52;;;14.98;;
75914;SDS011;64593;51.050;13.780;2024-02-16T11:17:32;19.98;;;14.07;;
75914;SDS011;64593;51.050;13.780;2024-02-16T11:22:36;20.73;;;15.25;;
75914;SDS011;64593;51.050;13.780;2024-02-16T11:27:39;23.65;;;15.52;;
75914;SDS011;64593;51.050;13.780;2024-02-16T11:32:42;19.60;;;12.88;;
75914;SDS011;64593;51.050;13.780;2024-02-16T11:42:48;20.08;;;14.48;;
75914;SDS011;64593;51.050;13.780;2024-02-16T11:48:09;21.92;;;13.25;;
75914;SDS011;64593;51.050;13.780;2024-02-16T11:53:14;19.85;;;13.38;;
75914;SDS011;64593;51.050;13.780;2024-02-16T11:58:40;21.83;;;15.43;;
75914;SDS011;64593;51.050;13.780;2024-02-16T12:03:42;20.85;;;14.90;;
75914;SDS011;64593;51.050;13.780;2024-02-16T12:08:46;19.90;;;13.82;;
75914;SDS011;64593;51.050;13.780;2024-02-16T12:13:48;19.45;;;14.35;;
75914;SDS011;64593;51.050;13.780;2024-02-16T12:18:50;18.75;;;12.93;;
75914;SDS011;64593;51.050;13.780;2024-02-16T12:23:52;20.08;;;12.82;;
75914;SDS011;64593;51.050;13.780;2024-02-16T12:28:54;19.48;;;12.48;;
75914;SDS011;64593;51.050;13.780;2024-02-16T12:34:15;12.93;;;8.18;;
75914;SDS011;64593;51.050;13.780;2024-02-16T12:39:17;16.42;;;12.35;;
75914;SDS011;64593;51.050;13.780;2024-02-16T12:44:19;15.45;;;11.75;;
75914;SDS011;64593;51.050;13.780;2024-02-16T12:49:21;15.95;;;12.23;;
75914;SDS011;64593;51.050;13.780;2024-02-16T12:54:42;15.90;;;10.35;;
75914;SDS011;64593;51.050;13.780;2024-02-16T12:59:45;17.83;;;10.98;;
75914;SDS011;64593;51.050;13.780;2024-02-16T13:04:47;14.68;;;9.23;;
75914;SDS011;64593;51.050;13.780;2024-02-16T13:09:49;12.77;;;7.97;;
75914;SDS011;64593;51.050;13.780;2024-02-16T13:14:55;13.35;;;9.15;;
75914;SDS011;64593;51.050;13.780;2024-02-16T13:19:58;15.35;;;9.40;;
75914;SDS011;64593;51.050;13.780;2024-02-16T13:30:10;12.95;;;9.07;;
75914;SDS011;64593;51.050;13.780;2024-02-16T13:35:12;17.48;;;10.63;;
75914;SDS011;64593;51.050;13.780;2024-02-16T13:40:38;15.95;;;9.90;;
75914;SDS011;64593;51.050;13.780;2024-02-16T13:46:00;17.77;;;12.40;;
75914;SDS011;64593;51.050;13.780;2024-02-16T13:51:02;19.27;;;13.25;;
75914;SDS011;64593;51.050;13.780;2024-02-16T13:56:05;16.52;;;9.02;;
75914;SDS011;64593;51.050;13.780;2024-02-16T14:01:08;21.63;;;12.80;;
75914;SDS011;64593;51.050;13.780;2024-02-16T14:06:10;21.60;;;14.82;;
75914;SDS011;64593;51.050;13.780;2024-02-16T14:11:13;18.50;;;12.70;;
75914;SDS011;64593;51.050;13.780;2024-02-16T14:16:15;17.27;;;12.55;;
75914;SDS011;64593;51.050;13.780;2024-02-16T14:21:17;24.08;;;18.40;;
75914;SDS011;64593;51.050;13.780;2024-02-16T14:26:38;22.50;;;16.52;;
75914;SDS011;64593;51.050;13.780;2024-02-16T14:31:40;24.50;;;15.73;;
75914;SDS011;64593;51.050;13.780;2024-02-16T14:36:41;23.15;;;15.63;;
75914;SDS011;64593;51.050;13.780;2024-02-16T14:41:43;19.08;;;12.43;;
75914;SDS011;64593;51.050;13.780;2024-02-16T14:46:45;23.00;;;14.75;;
75914;SDS011;64593;51.050;13.780;2024-02-16T14:51:47;23.52;;;14.63;;
75914;SDS011;64593;51.050;13.780;2024-02-16T14:56:51;27.73;;;19.77;;
75914;SDS011;64593;51.050;13.780;2024-02-16T15:01:55;28.33;;;19.05;;
75914;SDS011;64593;51.050;13.780;2024-02-16T15:06:57;27.52;;;17.15;;
75914;SDS011;64593;51.050;13.780;2024-02-16T15:11:59;25.85;;;17.67;;
75914;SDS011;64593;51.050;13.780;2024-02-16T15:17:01;27.20;;;17.30;;
75914;SDS011;64593;51.050;13.780;2024-02-16T15:22:22;25.73;;;18.52;;
75914;SDS011;64593;51.050;13.780;2024-02-16T15:27:27;30.98;;;19.92;;
75914;SDS011;64593;51.050;13.780;2024-02-16T15:32:47;25.17;;;16.50;;
75914;SDS011;64593;51.050;13.780;2024-02-16T15:37:52;28.85;;;21.48;;
75914;SDS011;64593;51.050;13.780;2024-02-16T15:43:00;25.58;;;15.07;;
75914;SDS011;64593;51.050;13.780;2024-02-16T15:48:03;27.52;;;16.80;;
75914;SDS011;64593;51.050;13.780;2024-02-16T15:53:06;25.98;;;16.85;;
75914;SDS011;64593;51.050;13.780;2024-02-16T15:58:08;26.27;;;16.50;;
75914;SDS011;64593;51.050;13.780;2024-02-16T16:03:10;29.25;;;18.17;;
75914;SDS011;64593;51.050;13.780;2024-02-16T16:08:12;27.65;;;18.08;;
75914;SDS011;64593;51.050;13.780;2024-02-16T16:13:33;30.70;;;17.48;;
75914;SDS011;64593;51.050;13.780;2024-02-16T16:18:42;28.02;;;16.40;;
75914;SDS011;64593;51.050;13.780;2024-02-16T16:29:54;29.38;;;24.08;;
75914;SDS011;64593;51.050;13.780;2024-02-16T16:35:27;26.73;;;14.13;;
75914;SDS011;64593;51.050;13.780;2024-02-16T16:40:53;28.98;;;17.02;;
75914;SDS011;64593;51.050;13.780;2024-02-16T16:46:00;25.83;;;16.38;;
75914;SDS011;64593;51.050;13.780;2024-02-16T16:51:03;29.95;;;19.17;;
75914;SDS011;64593;51.050;13.780;2024-02-16T16:56:10;27.10;;;16.92;;
75914;SDS011;64593;51.050;13.780;2024-02-16T17:01:13;29.38;;;21.35;;
75914;SDS011;64593;51.050;13.780;2024-02-16T17:06:19;29.15;;;16.80;;
75914;SDS011;64593;51.050;13.780;2024-02-16T17:11:25;19.80;;;12.73;;
75914;SDS011;64593;51.050;13.780;2024-02-16T17:16:28;28.10;;;17.25;;
75914;SDS011;64593;51.050;13.780;2024-02-16T17:21:33;31.45;;;17.70;;
75914;SDS011;64593;51.050;13.780;2024-02-16T17:26:35;25.50;;;16.83;;
75914;SDS011;64593;51.050;13.780;2024-02-16T17:31:48;29.52;;;17.65;;
75914;SDS011;64593;51.050;13.780;2024-02-16T17:36:51;18.13;;;10.63;;
75914;SDS011;64593;51.050;13.780;2024-02-16T17:41:54;27.02;;;16.60;;
75914;SDS011;64593;51.050;13.780;2024-02-16T17:46:59;28.20;;;17.65;;
75914;SDS011;64593;51.050;13.780;2024-02-16T17:57:05;32.40;;;19.52;;
75914;SDS011;64593;51.050;13.780;2024-02-16T18:02:08;27.10;;;16.33;;
75914;SDS011;64593;51.050;13.780;2024-02-16T18:07:35;30.75;;;17.48;;
75914;SDS011;64593;51.050;13.780;2024-02-16T18:12:38;29.08;;;18.45;;
75914;SDS011;64593;51.050;13.780;2024-02-16T18:17:41;32.53;;;19.05;;
75914;SDS011;64593;51.050;13.780;2024-02-16T18:22:43;26.92;;;15.73;;
75914;SDS011;64593;51.050;13.780;2024-02-16T18:27:45;27.73;;;16.90;;
75914;SDS011;64593;51.050;13.780;2024-02-16T18:33:06;26.92;;;15.70;;
75914;SDS011;64593;51.050;13.780;2024-02-16T18:38:11;27.42;;;17.27;;
75914;SDS011;64593;51.050;13.780;2024-02-16T18:43:13;25.85;;;16.40;;
75914;SDS011;64593;51.050;13.780;2024-02-16T18:48:20;25.40;;;15.43;;
75914;SDS011;64593;51.050;13.780;2024-02-16T18:53:37;27.02;;;16.65;;
75914;SDS011;64593;51.050;13.780;2024-02-16T18:58:42;27.55;;;16.15;;
75914;SDS011;64593;51.050;13.780;2024-02-16T19:03:50;28.25;;;15.85;;
75914;SDS011;64593;51.050;13.780;2024-02-16T19:08:56;30.83;;;18.58;;
75914;SDS011;64593;51.050;13.780;2024-02-16T19:14:18;23.23;;;14.75;;
75914;SDS011;64593;51.050;13.780;2024-02-16T19:19:22;26.05;;;16.83;;
75914;SDS011;64593;51.050;13.780;2024-02-16T19:24:25;27.45;;;15.55;;
75914;SDS011;64593;51.050;13.780;2024-02-16T19:29:33;24.55;;;15.35;;
75914;SDS011;64593;51.050;13.780;2024-02-16T19:34:38;28.13;;;15.77;;
75914;SDS011;64593;51.050;13.780;2024-02-16T19:40:08;30.60;;;17.13;;
75914;SDS011;64593;51.050;13.780;2024-02-16T19:45:17;26.70;;;15.68;;
75914;SDS011;64593;51.050;13.780;2024-02-16T19:50:30;22.95;;;14.05;;
75914;SDS011;64593;51.050;13.780;2024-02-16T19:55:33;23.77;;;13.50;;
75914;SDS011;64593;51.050;13.780;2024-02-16T20:00:38;26.08;;;16.98;;
75914;SDS011;64593;51.050;13.780;2024-02-16T20:05:41;23.52;;;14.93;;
75914;SDS011;64593;51.050;13.780;2024-02-16T20:10:45;26.73;;;15.73;;
75914;SDS011;64593;51.050;13.780;2024-02-16T20:15:53;35.08;;;20.90;;
75914;SDS011;64593;51.050;13.780;2024-02-16T20:20:59;31.42;;;18.50;;
75914;SDS011;64593;51.050;13.780;2024-02-16T20:26:04;27.85;;;17.17;;
75914;SDS011;64593;51.050;13.780;2024-02-16T20:31:07;25.52;;;15.20;;
75914;SDS011;64593;51.050;13.780;2024-02-16T20:36:26;31.95;;;18.40;;
75914;SDS011;64593;51.050;13.780;2024-02-16T20:41:41;26.33;;;16.35;;
75914;SDS011;64593;51.050;13.780;2024-02-16T20:47:02;27.02;;;15.77;;
75914;SDS011;64593;51.050;13.780;2024-02-16T20:52:10;25.58;;;14.68;;
75914;SDS011;64593;51.050;13.780;2024-02-16T20:57:18;26.70;;;16.17;;
75914;SDS011;64593;51.050;13.780;2024-02-16T21:02:26;29.45;;;17.55;;
75914;SDS011;64593;51.050;13.780;2024-02-16T21:07:32;28.65;;;17.75;;
75914;SDS011;64593;51.050;13.780;2024-02-16T21:12:35;27.80;;;17.13;;
75914;SDS011;64593;51.050;13.780;2024-02-16T21:17:48;27.92;;;15.48;;
75914;SDS011;64593;51.050;13.780;2024-02-16T21:23:18;26.38;;;16.38;;
75914;SDS011;64593;51.050;13.780;2024-02-16T21:28:20;25.58;;;15.23;;
75914;SDS011;64593;51.050;13.780;2024-02-16T21:33:25;27.90;;;16.63;;
75914;SDS011;64593;51.050;13.780;2024-02-16T21:38:50;25.40;;;15.02;;
75914;SDS011;64593;51.050;13.780;2024-02-16T21:43:55;29.67;;;15.82;;
75914;SDS011;64593;51.050;13.780;2024-02-16T21:49:13;31.70;;;16.45;;
75914;SDS011;64593;51.050;13.780;2024-02-16T21:54:22;28.38;;;15.82;;
75914;SDS011;64593;51.050;13.780;2024-02-16T21:59:27;27.08;;;16.85;;
75914;SDS011;64593;51.050;13.780;2024-02-16T22:04:35;30.27;;;15.68;;
75914;SDS011;64593;51.050;13.780;2024-02-16T22:09:44;25.48;;;15.73;;
75914;SDS011;64593;51.050;13.780;2024-02-16T22:14:47;28.88;;;16.00;;
75914;SDS011;64593;51.050;13.780;2024-02-16T22:19:50;22.60;;;13.70;;
75914;SDS011;64593;51.050;13.780;2024-02-16T22:24:52;26.45;;;15.13;;
75914;SDS011;64593;51.050;13.780;2024-02-16T22:30:17;24.63;;;14.38;;
75914;SDS011;64593;51.050;13.780;2024-02-16T22:35:19;25.15;;;15.45;;
75914;SDS011;64593;51.050;13.780;2024-02-16T22:40:24;25.73;;;16.77;;
75914;SDS011;64593;51.050;13.780;2024-02-16T22:45:29;27.67;;;15.10;;
75914;SDS011;64593;51.050;13.780;2024-02-16T22:50:35;26.70;;;14.98;;
75914;SDS011;64593;51.050;13.780;2024-02-16T22:55:39;26.30;;;14.80;;
